Orbital elements of FENGYUN 1C DEB
| Launched | 9 May 1999 |
| Flight ended | – |
| Launch site | Taiyuan Space Center, PRC |
| Owner | People's Republic of China |
| NORAD ID | 31435 |
| Date fetched |
Epoch osculation |
Inc. [°] |
Ecc. | RA asc node [hr] |
Arg Peri. [°] |
Mean anom [°] |
Mean motion [rev/day] |
Abs. mag |
| Date fetched |
Epoch osculation |
Inc. [°] |
Ecc. | RA asc node [hr] |
Arg Peri. [°] |
Mean anom [°] |
Mean motion [rev/day] |
Abs. mag |
| 2026 May 05 17:57 | 2026 May 03 23:28:08 | 99.0454 | 0.01494 | 20.8056 | 111.5419 | 250.1776 | 14.53730 | – |
| 2026 May 04 17:57 | 2026 Apr 29 23:39:32 | 99.0455 | 0.01494 | 20.5182 | 123.5302 | 250.1776 | 14.53730 | – |
| 2026 May 03 17:57 | 2026 Apr 29 23:39:32 | 99.0455 | 0.01494 | 20.5182 | 123.5302 | 250.1776 | 14.53730 | – |
| 2026 May 02 17:57 | 2026 Apr 29 23:39:32 | 99.0455 | 0.01494 | 20.5182 | 123.5302 | 250.1776 | 14.53730 | – |
| 2026 May 01 17:56 | 2026 Apr 29 23:39:32 | 99.0455 | 0.01494 | 20.5182 | 123.5302 | 250.1776 | 14.53730 | – |
| 2026 Apr 30 17:56 | 2026 Apr 29 23:39:32 | 99.0455 | 0.01494 | 20.5182 | 123.5302 | 250.1776 | 14.53730 | – |
| 2026 Apr 29 17:57 | 2026 Apr 24 11:30:22 | 99.0456 | 0.01492 | 20.1219 | 140.0184 | 250.1776 | 14.53730 | – |
| 2026 Apr 28 17:56 | 2026 Apr 24 11:30:22 | 99.0456 | 0.01492 | 20.1219 | 140.0184 | 250.1776 | 14.53730 | – |
| 2026 Apr 27 17:58 | 2026 Apr 24 11:30:22 | 99.0456 | 0.01492 | 20.1219 | 140.0184 | 250.1776 | 14.53730 | – |
| 2026 Apr 26 17:58 | 2026 Apr 24 11:30:22 | 99.0456 | 0.01492 | 20.1219 | 140.0184 | 250.1776 | 14.53730 | – |
| 2026 Apr 25 17:58 | 2026 Apr 24 11:30:22 | 99.0456 | 0.01492 | 20.1219 | 140.0184 | 250.1776 | 14.53730 | – |
| 2026 Apr 24 17:59 | 2026 Apr 24 11:30:22 | 99.0456 | 0.01492 | 20.1219 | 140.0184 | 250.1776 | 14.53730 | – |
| 2026 Apr 23 17:57 | 2026 Apr 19 05:57:34 | 99.0455 | 0.01490 | 19.7454 | 155.7227 | 250.1776 | 14.53730 | – |
| 2026 Apr 22 17:57 | 2026 Apr 19 05:57:34 | 99.0455 | 0.01490 | 19.7454 | 155.7227 | 250.1776 | 14.53730 | – |
| 2026 Apr 21 17:57 | 2026 Apr 19 05:57:34 | 99.0455 | 0.01490 | 19.7454 | 155.7227 | 250.1776 | 14.53730 | – |
| 2026 Apr 20 17:57 | 2026 Apr 19 05:57:34 | 99.0455 | 0.01490 | 19.7454 | 155.7227 | 250.1776 | 14.53730 | – |
| 2026 Apr 19 17:58 | 2026 Apr 19 05:57:34 | 99.0455 | 0.01490 | 19.7454 | 155.7227 | 250.1776 | 14.53730 | – |
| 2026 Apr 18 17:56 | 2026 Apr 11 17:53:53 | 99.0459 | 0.01485 | 19.2053 | 178.2964 | 250.1776 | 14.53730 | – |
| 2026 Apr 16 17:57 | 2026 Apr 11 17:53:53 | 99.0459 | 0.01485 | 19.2053 | 178.2964 | 250.1776 | 14.53730 | – |
| 2026 Apr 14 17:57 | 2026 Apr 11 17:53:53 | 99.0459 | 0.01485 | 19.2053 | 178.2964 | 250.1776 | 14.53730 | – |
| 2026 Apr 13 17:57 | 2026 Apr 11 17:53:53 | 99.0459 | 0.01485 | 19.2053 | 178.2964 | 250.1776 | 14.53730 | – |
| 2026 Apr 12 17:57 | 2026 Apr 07 23:02:26 | 99.0457 | 0.01483 | 18.9328 | 189.7562 | 250.1776 | 14.53730 | – |
| 2026 Apr 11 17:57 | 2026 Apr 07 23:02:26 | 99.0457 | 0.01483 | 18.9328 | 189.7562 | 250.1776 | 14.53730 | – |
| 2026 Apr 10 17:58 | 2026 Apr 07 23:02:26 | 99.0457 | 0.01483 | 18.9328 | 189.7562 | 250.1776 | 14.53730 | – |
| 2026 Apr 09 18:01 | 2026 Apr 07 23:02:26 | 99.0457 | 0.01483 | 18.9328 | 189.7562 | 250.1776 | 14.53730 | – |
| 2026 Apr 08 17:57 | 2026 Apr 07 23:02:26 | 99.0457 | 0.01483 | 18.9328 | 189.7562 | 250.1776 | 14.53730 | – |